createdAt,value
2022-08-23T00:00:06.620Z,99.90
2022-08-23T00:03:58.288Z,99.90
2022-08-23T00:07:43.988Z,99.90
2022-08-23T00:11:27.740Z,99.90
2022-08-23T00:15:11.638Z,99.90
2022-08-23T00:18:54.127Z,99.90
2022-08-23T00:22:37.473Z,99.90
2022-08-23T00:26:20.722Z,99.90
2022-08-23T00:30:05.014Z,99.90
2022-08-23T00:33:46.888Z,99.90
2022-08-23T00:37:32.154Z,99.90
2022-08-23T00:41:14.115Z,99.90
2022-08-23T00:45:16.313Z,99.90
2022-08-23T00:48:59.152Z,99.90
2022-08-23T00:52:48.647Z,99.90
2022-08-23T00:56:34.483Z,99.90
2022-08-23T01:00:17.062Z,99.90
2022-08-23T01:04:04.471Z,99.90
2022-08-23T01:07:54.619Z,99.90
2022-08-23T01:12:11.622Z,99.90
2022-08-23T01:16:01.309Z,99.90
2022-08-23T01:20:06.838Z,99.90
2022-08-23T01:23:56.262Z,99.90
2022-08-23T01:27:39.489Z,99.90
2022-08-23T01:31:23.792Z,99.90
2022-08-23T01:35:06.246Z,99.90
2022-08-23T01:38:48.871Z,99.90
2022-08-23T01:42:31.136Z,99.90
2022-08-23T01:46:19.640Z,99.90
2022-08-23T01:50:01.513Z,99.90
2022-08-23T01:53:43.968Z,99.90
2022-08-23T01:57:25.904Z,99.90
2022-08-23T02:01:07.876Z,99.90
2022-08-23T02:04:49.801Z,99.90
2022-08-23T02:08:50.227Z,99.90
2022-08-23T02:12:34.505Z,99.90
2022-08-23T02:16:25.231Z,99.90
2022-08-23T02:20:08.857Z,99.90
2022-08-23T02:23:54.171Z,99.90
2022-08-23T02:27:36.058Z,99.90
2022-08-23T02:31:18.282Z,99.90
2022-08-23T02:35:05.227Z,99.90
2022-08-23T02:38:47.848Z,99.90
2022-08-23T02:42:29.733Z,99.90
2022-08-23T02:46:12.103Z,99.90
2022-08-23T02:49:53.955Z,99.90
2022-08-23T02:53:36.742Z,99.90
2022-08-23T02:57:18.615Z,99.90
2022-08-23T03:01:01.274Z,99.90
2022-08-23T03:04:43.246Z,99.90
2022-08-23T03:08:25.287Z,99.90
2022-08-23T03:12:07.414Z,99.90
2022-08-23T03:15:49.423Z,99.90
2022-08-23T03:19:31.289Z,99.90
2022-08-23T03:23:13.334Z,99.90
2022-08-23T03:26:55.183Z,99.90
2022-08-23T03:30:37.175Z,99.90
2022-08-23T03:34:19.012Z,99.90
2022-08-23T03:38:02.059Z,99.90
2022-08-23T03:41:44.074Z,99.90
2022-08-23T03:45:26.098Z,99.90
2022-08-23T03:49:08.482Z,99.90
2022-08-23T03:52:50.409Z,99.90
2022-08-23T03:56:38.864Z,99.90
2022-08-23T04:00:21.228Z,99.90
2022-08-23T04:04:03.643Z,99.90
2022-08-23T04:07:45.607Z,99.90
2022-08-23T04:11:27.744Z,99.90
2022-08-23T04:15:10.171Z,99.90
2022-08-23T04:18:52.172Z,99.90
2022-08-23T04:22:34.116Z,99.90
2022-08-23T04:26:16.055Z,99.90
2022-08-23T04:29:58.972Z,99.90
2022-08-23T04:33:40.873Z,99.90
2022-08-23T04:37:23.339Z,99.90
2022-08-23T04:41:23.911Z,99.90
2022-08-23T04:45:06.375Z,99.90
2022-08-23T04:48:48.639Z,99.90
2022-08-23T04:52:30.543Z,99.90
2022-08-23T04:56:12.431Z,99.90
2022-08-23T04:59:54.326Z,99.90
2022-08-23T05:03:36.756Z,99.90
2022-08-23T05:07:18.675Z,99.90
2022-08-23T05:11:05.852Z,99.90
2022-08-23T05:14:48.077Z,99.90
2022-08-23T05:18:29.954Z,99.90
2022-08-23T05:22:12.327Z,99.90
2022-08-23T05:25:55.411Z,99.90
2022-08-23T05:29:37.371Z,99.90
2022-08-23T05:33:19.366Z,99.90
2022-08-23T05:37:01.480Z,99.90
2022-08-23T05:40:43.392Z,99.90
2022-08-23T05:44:25.341Z,99.90
2022-08-23T05:48:07.715Z,99.90
2022-08-23T05:51:51.451Z,99.90
2022-08-23T05:55:35.018Z,99.90
2022-08-23T05:59:19.494Z,99.90
2022-08-23T06:03:01.770Z,99.90
2022-08-23T06:06:44.151Z,99.90
2022-08-23T06:10:26.059Z,99.90
2022-08-23T06:14:09.393Z,99.90
2022-08-23T06:17:51.300Z,99.90
2022-08-23T06:21:34.366Z,99.90
2022-08-23T06:25:16.274Z,99.90
2022-08-23T06:29:02.496Z,99.90
2022-08-23T06:32:44.512Z,99.90
2022-08-23T06:36:26.451Z,99.90
2022-08-23T06:40:08.795Z,99.90
2022-08-23T06:43:51.598Z,99.90
2022-08-23T06:47:33.458Z,99.90
2022-08-23T06:51:28.041Z,99.90
2022-08-23T06:55:13.601Z,99.90
2022-08-23T06:58:56.196Z,99.90
2022-08-23T07:02:38.650Z,99.90
2022-08-23T07:06:20.598Z,99.90
2022-08-23T07:10:02.612Z,99.90
2022-08-23T07:13:45.097Z,99.90
2022-08-23T07:17:26.966Z,99.90
2022-08-23T07:21:08.861Z,99.90
2022-08-23T07:24:50.676Z,99.90
2022-08-23T07:28:33.114Z,99.90
2022-08-23T07:32:15.026Z,99.90
2022-08-23T07:35:56.959Z,99.90
2022-08-23T07:39:39.815Z,99.90
2022-08-23T07:43:22.838Z,99.90
2022-08-23T07:47:04.835Z,99.90
2022-08-23T07:51:01.311Z,99.90
2022-08-23T07:54:48.579Z,99.90
2022-08-23T07:58:31.488Z,99.90
2022-08-23T08:02:13.461Z,99.90
2022-08-23T08:05:57.694Z,99.90
2022-08-23T08:09:39.905Z,99.90
2022-08-23T08:13:21.808Z,99.90
2022-08-23T08:17:03.815Z,99.90
2022-08-23T08:20:46.035Z,99.90
2022-08-23T08:24:27.902Z,99.90
2022-08-23T08:28:15.581Z,99.90
2022-08-23T08:31:58.079Z,99.90
2022-08-23T08:35:39.980Z,99.90
2022-08-23T08:39:26.538Z,99.90
2022-08-23T08:43:27.183Z,99.90
2022-08-23T08:47:21.307Z,99.90
2022-08-23T08:51:32.585Z,99.90
2022-08-23T08:55:22.148Z,99.90
2022-08-23T08:59:07.939Z,99.90
2022-08-23T09:02:50.797Z,99.90
2022-08-23T09:06:47.525Z,99.90
2022-08-23T09:10:38.448Z,99.90
2022-08-23T09:14:49.710Z,99.90
2022-08-23T09:18:35.316Z,99.90
2022-08-23T09:22:25.815Z,99.90
2022-08-23T09:26:32.488Z,99.90
2022-08-23T09:30:17.522Z,99.90
2022-08-23T09:33:59.437Z,99.90
2022-08-23T09:38:01.665Z,99.90
2022-08-23T09:41:43.683Z,99.90
2022-08-23T09:45:33.158Z,99.50
2022-08-23T09:49:29.971Z,99.30
2022-08-23T09:53:14.579Z,99.10
2022-08-23T09:56:59.845Z,98.90
2022-08-23T10:00:42.029Z,99.50
2022-08-23T10:04:39.021Z,99.80
2022-08-23T10:08:33.623Z,99.90
2022-08-23T10:12:15.658Z,99.90
2022-08-23T10:16:34.297Z,99.90
2022-08-23T10:20:37.478Z,99.90
2022-08-23T10:24:34.355Z,99.90
2022-08-23T10:28:48.802Z,99.50
2022-08-23T10:32:48.328Z,99.20
2022-08-23T10:36:38.838Z,98.20
2022-08-23T10:40:39.486Z,97.50
2022-08-23T10:44:42.215Z,96.80
2022-08-23T10:48:53.870Z,96.50
2022-08-23T10:52:59.528Z,95.80
2022-08-23T10:56:51.262Z,95.50
2022-08-23T11:00:35.725Z,95.50
2022-08-23T11:04:36.651Z,95.80
2022-08-23T11:08:34.282Z,96.20
2022-08-23T11:12:24.075Z,95.70
2022-08-23T11:16:15.157Z,95.50
2022-08-23T11:20:04.571Z,95.80
2022-08-23T11:23:58.131Z,96.10
2022-08-23T11:27:43.084Z,95.30
2022-08-23T11:31:31.881Z,94.80
2022-08-23T11:35:33.084Z,95.10
2022-08-23T11:39:19.577Z,94.40
2022-08-23T11:43:26.178Z,92.60
2022-08-23T11:47:10.996Z,91.90
2022-08-23T11:50:58.165Z,91.20
2022-08-23T11:55:24.262Z,90.30
2022-08-23T11:59:42.804Z,91.50
2022-08-23T12:03:27.304Z,90.70
2022-08-23T12:07:13.686Z,90.00
2022-08-23T12:11:00.429Z,90.30
2022-08-23T12:14:45.365Z,89.10
2022-08-23T12:18:27.481Z,86.50
2022-08-23T12:22:15.779Z,84.40
2022-08-23T12:26:38.655Z,82.20
2022-08-23T12:30:42.769Z,85.30
2022-08-23T12:34:39.796Z,80.30
2022-08-23T12:38:27.575Z,78.70
2022-08-23T12:42:25.235Z,79.80
2022-08-23T12:46:07.238Z,79.00
2022-08-23T12:50:15.801Z,74.30
2022-08-23T12:54:13.342Z,75.40
2022-08-23T12:57:58.078Z,76.00
2022-08-23T13:01:42.021Z,71.30
2022-08-23T13:05:32.873Z,68.20
2022-08-23T13:09:42.574Z,70.00
2022-08-23T13:13:41.691Z,73.70
2022-08-23T13:17:26.460Z,69.80
2022-08-23T13:21:23.550Z,70.80
2022-08-23T13:25:29.221Z,71.60
2022-08-23T13:29:23.173Z,68.90
2022-08-23T13:33:08.122Z,70.20
2022-08-23T13:36:50.181Z,68.80
2022-08-23T13:40:41.209Z,65.70
2022-08-23T13:44:24.786Z,65.80
2022-08-23T13:48:14.438Z,62.00
2022-08-23T13:52:18.342Z,61.80
2022-08-23T13:56:01.138Z,60.80
2022-08-23T13:59:53.270Z,59.60
2022-08-23T14:03:35.246Z,61.60
2022-08-23T14:07:17.236Z,60.40
2022-08-23T14:10:59.312Z,59.40
2022-08-23T14:14:42.298Z,59.00
2022-08-23T14:18:24.205Z,58.70
2022-08-23T14:22:06.213Z,58.90
2022-08-23T14:25:51.316Z,60.80
2022-08-23T14:29:33.761Z,62.40
2022-08-23T14:33:15.783Z,63.60
2022-08-23T14:41:16.413Z,68.30
2022-08-23T14:44:58.422Z,69.70
2022-08-23T14:48:40.353Z,71.20
2022-08-23T14:52:22.677Z,72.80
2022-08-23T14:56:20.546Z,74.20
2022-08-23T15:00:05.478Z,76.20
2022-08-23T15:03:47.831Z,77.60
2022-08-23T15:07:29.716Z,78.40
2022-08-23T15:15:21.942Z,81.90
2022-08-23T15:19:04.447Z,82.20
2022-08-23T15:22:55.321Z,84.00
2022-08-23T15:26:38.338Z,85.10
2022-08-23T15:30:21.960Z,85.70
2022-08-23T15:34:04.625Z,85.50
2022-08-23T15:37:47.224Z,86.60
2022-08-23T15:41:29.114Z,87.20
2022-08-23T15:45:11.967Z,87.80
2022-08-23T15:49:02.098Z,88.10
2022-08-23T15:52:44.078Z,88.30
2022-08-23T15:56:37.109Z,88.60
2022-08-23T16:00:21.705Z,88.80
2022-08-23T16:04:04.258Z,89.30
2022-08-23T16:07:47.156Z,89.70
2022-08-23T16:11:29.156Z,89.90
2022-08-23T16:15:11.313Z,90.20
2022-08-23T16:18:54.208Z,90.40
2022-08-23T16:22:36.624Z,90.90
2022-08-23T16:26:22.500Z,91.20
2022-08-23T16:30:17.227Z,91.40
2022-08-23T16:34:00.865Z,91.40
2022-08-23T16:37:42.726Z,91.60
2022-08-23T16:41:24.691Z,91.80
2022-08-23T16:45:07.669Z,91.70
2022-08-23T16:48:49.814Z,92.00
2022-08-23T16:52:34.717Z,92.20
2022-08-23T16:56:17.929Z,92.50
2022-08-23T16:59:59.881Z,92.70
2022-08-23T17:03:42.932Z,92.80
2022-08-23T17:07:25.321Z,92.90
2022-08-23T17:11:12.818Z,93.20
2022-08-23T17:14:57.210Z,93.20
2022-08-23T17:18:39.635Z,93.30
2022-08-23T17:22:21.488Z,93.20
2022-08-23T17:26:03.528Z,93.30
2022-08-23T17:29:45.368Z,93.30
2022-08-23T17:33:28.578Z,93.40
2022-08-23T17:37:20.999Z,93.50
2022-08-23T17:41:02.939Z,93.20
2022-08-23T17:44:45.360Z,93.50
2022-08-23T17:48:28.569Z,93.70
2022-08-23T17:52:12.133Z,93.70
2022-08-23T17:55:55.098Z,94.30
2022-08-23T17:59:37.648Z,94.10
2022-08-23T18:03:19.597Z,94.30
2022-08-23T18:07:02.013Z,94.30
2022-08-23T18:10:43.931Z,94.70
2022-08-23T18:14:27.777Z,95.00
2022-08-23T18:18:10.017Z,95.10
2022-08-23T18:21:51.982Z,95.30
2022-08-23T18:25:34.141Z,95.50
2022-08-23T18:29:16.597Z,95.60
2022-08-23T18:32:59.290Z,95.80
2022-08-23T18:36:41.897Z,96.10
2022-08-23T18:40:25.089Z,96.30
2022-08-23T18:44:08.358Z,96.40
2022-08-23T18:47:50.285Z,96.50
2022-08-23T18:51:32.231Z,96.70
2022-08-23T18:55:16.174Z,96.80
2022-08-23T18:58:58.039Z,97.10
2022-08-23T19:02:40.006Z,97.40
2022-08-23T19:06:23.081Z,97.70
2022-08-23T19:10:05.635Z,98.00
2022-08-23T19:13:48.141Z,98.20
2022-08-23T19:17:30.047Z,98.40
2022-08-23T19:21:18.267Z,98.70
2022-08-23T19:25:00.097Z,98.80
2022-08-23T19:28:42.367Z,96.70
2022-08-23T19:32:24.325Z,99.10
2022-08-23T19:36:06.779Z,99.30
2022-08-23T19:39:48.839Z,99.60
2022-08-23T19:43:31.607Z,99.70
2022-08-23T19:47:19.647Z,99.90
2022-08-23T19:51:03.620Z,99.90
2022-08-23T19:54:45.569Z,99.90
2022-08-23T19:58:28.418Z,99.90
2022-08-23T20:02:14.249Z,99.90
2022-08-23T20:05:56.143Z,99.90
2022-08-23T20:09:38.059Z,99.90
2022-08-23T20:13:20.775Z,99.90
2022-08-23T20:17:04.569Z,99.90
2022-08-23T20:20:46.486Z,99.90
2022-08-23T20:24:48.717Z,99.90
2022-08-23T20:28:30.241Z,99.90
2022-08-23T20:32:12.192Z,99.90
2022-08-23T20:35:54.016Z,99.90
2022-08-23T20:39:35.909Z,99.90
2022-08-23T20:43:17.807Z,99.90
2022-08-23T20:47:02.771Z,99.90
2022-08-23T20:50:45.137Z,99.90
2022-08-23T20:54:27.284Z,99.90
2022-08-23T20:58:09.423Z,99.90
2022-08-23T21:01:51.461Z,99.90
2022-08-23T21:05:33.468Z,99.90
2022-08-23T21:09:20.805Z,99.90
2022-08-23T21:13:05.072Z,99.90
2022-08-23T21:16:52.662Z,99.90
2022-08-23T21:20:34.576Z,99.90
2022-08-23T21:24:16.734Z,99.90
2022-08-23T21:28:02.213Z,99.90
2022-08-23T21:31:46.132Z,99.90
2022-08-23T21:35:30.173Z,99.90
2022-08-23T21:39:12.089Z,99.90
2022-08-23T21:42:54.069Z,99.90
2022-08-23T21:46:36.298Z,99.90
2022-08-23T21:50:18.404Z,99.90
2022-08-23T21:54:00.438Z,99.90
2022-08-23T21:57:43.420Z,99.90
2022-08-23T22:01:26.057Z,99.90
2022-08-23T22:05:08.507Z,99.90
2022-08-23T22:08:50.460Z,99.90
2022-08-23T22:12:33.571Z,99.90
2022-08-23T22:16:15.948Z,99.90
2022-08-23T22:19:57.852Z,99.90
2022-08-23T22:23:43.389Z,99.90
2022-08-23T22:27:25.464Z,99.90
2022-08-23T22:31:07.694Z,99.90
2022-08-23T22:34:49.751Z,99.90
2022-08-23T22:38:31.851Z,99.90
2022-08-23T22:42:13.872Z,99.90
2022-08-23T22:45:58.841Z,99.90
2022-08-23T22:49:42.652Z,99.90
2022-08-23T22:53:24.579Z,99.90
2022-08-23T22:57:06.459Z,99.90
2022-08-23T23:00:48.390Z,99.90
2022-08-23T23:04:32.353Z,99.90
2022-08-23T23:08:30.052Z,99.90
2022-08-23T23:12:12.906Z,99.90
2022-08-23T23:15:55.579Z,99.90
2022-08-23T23:19:55.855Z,99.90
2022-08-23T23:23:37.987Z,99.90
2022-08-23T23:27:19.863Z,99.90
2022-08-23T23:31:03.419Z,99.90
2022-08-23T23:34:45.359Z,99.90
2022-08-23T23:38:27.251Z,99.90
2022-08-23T23:42:09.137Z,99.90
2022-08-23T23:45:51.067Z,99.90
2022-08-23T23:49:33.624Z,99.90
2022-08-23T23:53:15.889Z,99.90
2022-08-23T23:56:57.801Z,99.90
